sensor_id;sensor_type;location;lat;lon;timestamp;P1;durP1;ratioP1;P2;durP2;ratioP2
19605;SDS011;9950;50.168;8.210;2023-07-29T00:01:19;9.88;;;8.63;;
19605;SDS011;9950;50.168;8.210;2023-07-29T00:03:46;10.30;;;8.38;;
19605;SDS011;9950;50.168;8.210;2023-07-29T00:06:13;9.50;;;7.88;;
19605;SDS011;9950;50.168;8.210;2023-07-29T00:08:41;11.70;;;7.32;;
19605;SDS011;9950;50.168;8.210;2023-07-29T00:11:08;8.65;;;6.80;;
19605;SDS011;9950;50.168;8.210;2023-07-29T00:13:35;7.78;;;6.97;;
19605;SDS011;9950;50.168;8.210;2023-07-29T00:16:03;8.13;;;6.65;;
19605;SDS011;9950;50.168;8.210;2023-07-29T00:18:31;10.43;;;6.05;;
19605;SDS011;9950;50.168;8.210;2023-07-29T00:20:58;8.27;;;7.20;;
19605;SDS011;9950;50.168;8.210;2023-07-29T00:23:25;10.13;;;7.07;;
19605;SDS011;9950;50.168;8.210;2023-07-29T00:25:52;7.65;;;6.00;;
19605;SDS011;9950;50.168;8.210;2023-07-29T00:28:19;6.60;;;5.90;;
19605;SDS011;9950;50.168;8.210;2023-07-29T00:30:46;7.05;;;5.93;;
19605;SDS011;9950;50.168;8.210;2023-07-29T00:33:15;8.20;;;5.68;;
19605;SDS011;9950;50.168;8.210;2023-07-29T00:35:42;7.45;;;6.00;;
19605;SDS011;9950;50.168;8.210;2023-07-29T00:38:09;9.65;;;6.20;;
19605;SDS011;9950;50.168;8.210;2023-07-29T00:40:36;9.00;;;7.32;;
19605;SDS011;9950;50.168;8.210;2023-07-29T00:43:04;10.65;;;7.10;;
19605;SDS011;9950;50.168;8.210;2023-07-29T00:45:31;10.25;;;6.90;;
19605;SDS011;9950;50.168;8.210;2023-07-29T00:47:58;8.77;;;7.75;;
19605;SDS011;9950;50.168;8.210;2023-07-29T00:50:27;10.93;;;9.23;;
19605;SDS011;9950;50.168;8.210;2023-07-29T00:52:55;12.82;;;9.30;;
19605;SDS011;9950;50.168;8.210;2023-07-29T00:55:23;10.65;;;8.88;;
19605;SDS011;9950;50.168;8.210;2023-07-29T00:57:50;10.07;;;8.65;;
19605;SDS011;9950;50.168;8.210;2023-07-29T01:00:19;11.75;;;9.00;;
19605;SDS011;9950;50.168;8.210;2023-07-29T01:02:47;11.35;;;9.15;;
19605;SDS011;9950;50.168;8.210;2023-07-29T01:05:14;11.70;;;9.00;;
19605;SDS011;9950;50.168;8.210;2023-07-29T01:07:47;11.15;;;8.80;;
19605;SDS011;9950;50.168;8.210;2023-07-29T01:10:19;11.43;;;9.18;;
19605;SDS011;9950;50.168;8.210;2023-07-29T01:12:47;13.85;;;11.13;;
19605;SDS011;9950;50.168;8.210;2023-07-29T01:15:16;11.98;;;9.68;;
19605;SDS011;9950;50.168;8.210;2023-07-29T01:17:48;11.30;;;10.00;;
19605;SDS011;9950;50.168;8.210;2023-07-29T01:20:16;12.48;;;10.93;;
19605;SDS011;9950;50.168;8.210;2023-07-29T01:22:46;13.82;;;9.90;;
19605;SDS011;9950;50.168;8.210;2023-07-29T01:25:15;10.65;;;9.55;;
19605;SDS011;9950;50.168;8.210;2023-07-29T01:27:42;12.13;;;9.48;;
19605;SDS011;9950;50.168;8.210;2023-07-29T01:30:10;13.93;;;9.95;;
19605;SDS011;9950;50.168;8.210;2023-07-29T01:32:39;13.60;;;10.65;;
19605;SDS011;9950;50.168;8.210;2023-07-29T01:35:10;12.43;;;10.23;;
19605;SDS011;9950;50.168;8.210;2023-07-29T01:37:40;13.18;;;10.93;;
19605;SDS011;9950;50.168;8.210;2023-07-29T01:40:08;10.98;;;9.82;;
19605;SDS011;9950;50.168;8.210;2023-07-29T01:42:37;11.05;;;9.30;;
19605;SDS011;9950;50.168;8.210;2023-07-29T01:45:04;12.50;;;10.10;;
19605;SDS011;9950;50.168;8.210;2023-07-29T01:47:32;11.98;;;9.68;;
19605;SDS011;9950;50.168;8.210;2023-07-29T01:49:59;14.38;;;11.00;;
19605;SDS011;9950;50.168;8.210;2023-07-29T01:52:26;12.13;;;9.80;;
19605;SDS011;9950;50.168;8.210;2023-07-29T01:54:53;17.95;;;11.50;;
19605;SDS011;9950;50.168;8.210;2023-07-29T01:57:20;17.90;;;12.10;;
19605;SDS011;9950;50.168;8.210;2023-07-29T01:59:49;19.55;;;12.50;;
19605;SDS011;9950;50.168;8.210;2023-07-29T02:02:16;19.25;;;13.40;;
19605;SDS011;9950;50.168;8.210;2023-07-29T02:04:43;22.60;;;13.45;;
19605;SDS011;9950;50.168;8.210;2023-07-29T02:07:16;19.90;;;13.55;;
19605;SDS011;9950;50.168;8.210;2023-07-29T02:09:44;18.65;;;12.65;;
19605;SDS011;9950;50.168;8.210;2023-07-29T02:12:11;21.20;;;12.95;;
19605;SDS011;9950;50.168;8.210;2023-07-29T02:14:38;19.00;;;12.70;;
19605;SDS011;9950;50.168;8.210;2023-07-29T02:17:07;19.48;;;13.52;;
19605;SDS011;9950;50.168;8.210;2023-07-29T02:19:34;21.40;;;12.63;;
19605;SDS011;9950;50.168;8.210;2023-07-29T02:22:02;23.05;;;13.68;;
19605;SDS011;9950;50.168;8.210;2023-07-29T02:24:29;23.40;;;13.40;;
19605;SDS011;9950;50.168;8.210;2023-07-29T02:26:56;23.27;;;13.23;;
19605;SDS011;9950;50.168;8.210;2023-07-29T02:29:23;20.60;;;13.05;;
19605;SDS011;9950;50.168;8.210;2023-07-29T02:31:50;20.30;;;12.45;;
19605;SDS011;9950;50.168;8.210;2023-07-29T02:34:19;18.33;;;11.27;;
19605;SDS011;9950;50.168;8.210;2023-07-29T02:36:46;17.73;;;11.07;;
19605;SDS011;9950;50.168;8.210;2023-07-29T02:39:13;16.15;;;9.73;;
19605;SDS011;9950;50.168;8.210;2023-07-29T02:41:40;15.10;;;9.73;;
19605;SDS011;9950;50.168;8.210;2023-07-29T02:44:07;12.73;;;9.30;;
19605;SDS011;9950;50.168;8.210;2023-07-29T02:46:34;13.45;;;9.32;;
19605;SDS011;9950;50.168;8.210;2023-07-29T02:49:02;12.68;;;8.23;;
19605;SDS011;9950;50.168;8.210;2023-07-29T02:51:30;11.57;;;8.35;;
19605;SDS011;9950;50.168;8.210;2023-07-29T02:53:58;12.05;;;8.15;;
19605;SDS011;9950;50.168;8.210;2023-07-29T02:56:25;10.80;;;8.00;;
19605;SDS011;9950;50.168;8.210;2023-07-29T02:58:52;13.02;;;8.20;;
19605;SDS011;9950;50.168;8.210;2023-07-29T03:01:19;12.85;;;8.52;;
19605;SDS011;9950;50.168;8.210;2023-07-29T03:03:46;13.20;;;9.10;;
19605;SDS011;9950;50.168;8.210;2023-07-29T03:06:14;11.88;;;8.27;;
19605;SDS011;9950;50.168;8.210;2023-07-29T03:08:43;12.52;;;8.60;;
19605;SDS011;9950;50.168;8.210;2023-07-29T03:11:10;11.45;;;8.48;;
19605;SDS011;9950;50.168;8.210;2023-07-29T03:13:37;12.48;;;9.27;;
19605;SDS011;9950;50.168;8.210;2023-07-29T03:16:05;12.43;;;8.02;;
19605;SDS011;9950;50.168;8.210;2023-07-29T03:18:32;13.48;;;8.55;;
19605;SDS011;9950;50.168;8.210;2023-07-29T03:20:59;9.00;;;7.53;;
19605;SDS011;9950;50.168;8.210;2023-07-29T03:23:27;11.18;;;7.25;;
19605;SDS011;9950;50.168;8.210;2023-07-29T03:25:56;10.00;;;7.15;;
19605;SDS011;9950;50.168;8.210;2023-07-29T03:28:23;10.23;;;6.95;;
19605;SDS011;9950;50.168;8.210;2023-07-29T03:30:50;10.30;;;7.10;;
19605;SDS011;9950;50.168;8.210;2023-07-29T03:33:17;10.45;;;6.88;;
19605;SDS011;9950;50.168;8.210;2023-07-29T03:35:45;9.48;;;6.90;;
19605;SDS011;9950;50.168;8.210;2023-07-29T03:38:12;8.30;;;6.72;;
19605;SDS011;9950;50.168;8.210;2023-07-29T03:40:39;8.85;;;6.93;;
19605;SDS011;9950;50.168;8.210;2023-07-29T03:43:08;10.18;;;7.75;;
19605;SDS011;9950;50.168;8.210;2023-07-29T03:45:35;7.68;;;6.88;;
19605;SDS011;9950;50.168;8.210;2023-07-29T03:48:03;8.52;;;6.93;;
19605;SDS011;9950;50.168;8.210;2023-07-29T03:50:32;9.18;;;7.00;;
19605;SDS011;9950;50.168;8.210;2023-07-29T03:52:59;9.90;;;7.60;;
19605;SDS011;9950;50.168;8.210;2023-07-29T03:55:27;9.55;;;7.55;;
19605;SDS011;9950;50.168;8.210;2023-07-29T03:57:54;11.50;;;7.78;;
19605;SDS011;9950;50.168;8.210;2023-07-29T04:00:23;9.55;;;7.03;;
19605;SDS011;9950;50.168;8.210;2023-07-29T04:02:50;9.93;;;7.70;;
19605;SDS011;9950;50.168;8.210;2023-07-29T04:05:17;10.63;;;7.10;;
19605;SDS011;9950;50.168;8.210;2023-07-29T04:07:45;7.25;;;6.30;;
19605;SDS011;9950;50.168;8.210;2023-07-29T04:10:12;9.20;;;6.90;;
19605;SDS011;9950;50.168;8.210;2023-07-29T04:12:39;9.15;;;7.00;;
19605;SDS011;9950;50.168;8.210;2023-07-29T04:15:07;8.30;;;6.35;;
19605;SDS011;9950;50.168;8.210;2023-07-29T04:17:35;7.80;;;5.95;;
19605;SDS011;9950;50.168;8.210;2023-07-29T04:20:03;7.35;;;5.95;;
19605;SDS011;9950;50.168;8.210;2023-07-29T04:22:30;8.57;;;6.28;;
19605;SDS011;9950;50.168;8.210;2023-07-29T04:24:57;7.07;;;6.10;;
19605;SDS011;9950;50.168;8.210;2023-07-29T04:27:24;8.00;;;5.97;;
19605;SDS011;9950;50.168;8.210;2023-07-29T04:29:51;8.38;;;5.75;;
19605;SDS011;9950;50.168;8.210;2023-07-29T04:32:18;6.00;;;5.40;;
19605;SDS011;9950;50.168;8.210;2023-07-29T04:34:47;6.03;;;5.30;;
19605;SDS011;9950;50.168;8.210;2023-07-29T04:37:14;7.32;;;6.20;;
19605;SDS011;9950;50.168;8.210;2023-07-29T04:39:41;9.88;;;7.35;;
19605;SDS011;9950;50.168;8.210;2023-07-29T04:42:08;8.23;;;7.03;;
19605;SDS011;9950;50.168;8.210;2023-07-29T04:44:35;9.68;;;7.28;;
19605;SDS011;9950;50.168;8.210;2023-07-29T04:47:02;9.52;;;7.35;;
19605;SDS011;9950;50.168;8.210;2023-07-29T04:49:29;8.55;;;6.85;;
19605;SDS011;9950;50.168;8.210;2023-07-29T04:51:58;7.82;;;6.72;;
19605;SDS011;9950;50.168;8.210;2023-07-29T04:54:25;9.05;;;6.93;;
19605;SDS011;9950;50.168;8.210;2023-07-29T04:56:52;6.68;;;5.97;;
19605;SDS011;9950;50.168;8.210;2023-07-29T04:59:19;6.82;;;5.95;;
19605;SDS011;9950;50.168;8.210;2023-07-29T05:01:46;6.82;;;5.20;;
19605;SDS011;9950;50.168;8.210;2023-07-29T05:04:13;8.45;;;5.75;;
19605;SDS011;9950;50.168;8.210;2023-07-29T05:06:41;6.13;;;5.10;;
19605;SDS011;9950;50.168;8.210;2023-07-29T05:09:16;7.10;;;5.20;;
19605;SDS011;9950;50.168;8.210;2023-07-29T05:11:43;6.35;;;4.85;;
19605;SDS011;9950;50.168;8.210;2023-07-29T05:14:12;6.28;;;4.68;;
19605;SDS011;9950;50.168;8.210;2023-07-29T05:16:39;6.00;;;5.35;;
19605;SDS011;9950;50.168;8.210;2023-07-29T05:19:06;7.57;;;5.85;;
19605;SDS011;9950;50.168;8.210;2023-07-29T05:21:34;6.28;;;5.35;;
19605;SDS011;9950;50.168;8.210;2023-07-29T05:24:01;9.13;;;6.20;;
19605;SDS011;9950;50.168;8.210;2023-07-29T05:26:29;6.50;;;5.22;;
19605;SDS011;9950;50.168;8.210;2023-07-29T05:28:56;5.15;;;4.65;;
19605;SDS011;9950;50.168;8.210;2023-07-29T05:31:23;5.63;;;4.70;;
19605;SDS011;9950;50.168;8.210;2023-07-29T05:33:51;4.50;;;4.07;;
19605;SDS011;9950;50.168;8.210;2023-07-29T05:36:18;4.85;;;3.55;;
19605;SDS011;9950;50.168;8.210;2023-07-29T05:38:46;3.95;;;3.58;;
19605;SDS011;9950;50.168;8.210;2023-07-29T05:41:13;4.63;;;4.22;;
19605;SDS011;9950;50.168;8.210;2023-07-29T05:43:45;4.00;;;3.60;;
19605;SDS011;9950;50.168;8.210;2023-07-29T05:46:12;4.18;;;3.50;;
19605;SDS011;9950;50.168;8.210;2023-07-29T05:48:39;4.97;;;3.42;;
19605;SDS011;9950;50.168;8.210;2023-07-29T05:51:06;4.30;;;3.78;;
19605;SDS011;9950;50.168;8.210;2023-07-29T05:53:33;4.22;;;3.83;;
19605;SDS011;9950;50.168;8.210;2023-07-29T05:56:01;3.92;;;3.53;;
19605;SDS011;9950;50.168;8.210;2023-07-29T05:58:28;7.97;;;4.10;;
19605;SDS011;9950;50.168;8.210;2023-07-29T06:00:57;4.03;;;3.47;;
19605;SDS011;9950;50.168;8.210;2023-07-29T06:03:24;5.00;;;4.50;;
19605;SDS011;9950;50.168;8.210;2023-07-29T06:05:51;7.45;;;4.22;;
19605;SDS011;9950;50.168;8.210;2023-07-29T06:08:19;6.28;;;4.45;;
19605;SDS011;9950;50.168;8.210;2023-07-29T06:10:46;6.68;;;4.45;;
19605;SDS011;9950;50.168;8.210;2023-07-29T06:13:13;5.13;;;4.15;;
19605;SDS011;9950;50.168;8.210;2023-07-29T06:15:40;14.80;;;5.80;;
19605;SDS011;9950;50.168;8.210;2023-07-29T06:18:09;6.82;;;5.00;;
19605;SDS011;9950;50.168;8.210;2023-07-29T06:20:36;7.60;;;4.88;;
19605;SDS011;9950;50.168;8.210;2023-07-29T06:23:03;8.38;;;5.63;;
19605;SDS011;9950;50.168;8.210;2023-07-29T06:25:30;6.18;;;5.47;;
19605;SDS011;9950;50.168;8.210;2023-07-29T06:27:57;8.13;;;5.22;;
19605;SDS011;9950;50.168;8.210;2023-07-29T06:30:25;6.32;;;4.85;;
19605;SDS011;9950;50.168;8.210;2023-07-29T06:32:52;5.13;;;4.63;;
19605;SDS011;9950;50.168;8.210;2023-07-29T06:35:21;5.30;;;4.28;;
19605;SDS011;9950;50.168;8.210;2023-07-29T06:37:48;5.47;;;4.60;;
19605;SDS011;9950;50.168;8.210;2023-07-29T06:40:15;5.80;;;5.15;;
19605;SDS011;9950;50.168;8.210;2023-07-29T06:42:42;5.50;;;5.00;;
19605;SDS011;9950;50.168;8.210;2023-07-29T06:45:10;10.27;;;6.43;;
19605;SDS011;9950;50.168;8.210;2023-07-29T06:47:37;8.43;;;6.38;;
19605;SDS011;9950;50.168;8.210;2023-07-29T06:50:04;8.82;;;6.95;;
19605;SDS011;9950;50.168;8.210;2023-07-29T06:52:33;11.00;;;6.95;;
19605;SDS011;9950;50.168;8.210;2023-07-29T06:55:01;9.32;;;6.93;;
19605;SDS011;9950;50.168;8.210;2023-07-29T06:57:29;7.53;;;6.78;;
19605;SDS011;9950;50.168;8.210;2023-07-29T06:59:56;7.85;;;6.88;;
19605;SDS011;9950;50.168;8.210;2023-07-29T07:02:23;9.02;;;7.50;;
19605;SDS011;9950;50.168;8.210;2023-07-29T07:04:50;7.55;;;6.20;;
19605;SDS011;9950;50.168;8.210;2023-07-29T07:07:18;7.40;;;6.22;;
19605;SDS011;9950;50.168;8.210;2023-07-29T07:09:47;9.90;;;6.75;;
19605;SDS011;9950;50.168;8.210;2023-07-29T07:12:14;7.28;;;5.82;;
19605;SDS011;9950;50.168;8.210;2023-07-29T07:14:41;7.22;;;6.10;;
19605;SDS011;9950;50.168;8.210;2023-07-29T07:17:08;7.53;;;6.00;;
19605;SDS011;9950;50.168;8.210;2023-07-29T07:19:35;7.22;;;6.43;;
19605;SDS011;9950;50.168;8.210;2023-07-29T07:22:02;8.63;;;5.93;;
19605;SDS011;9950;50.168;8.210;2023-07-29T07:24:30;6.57;;;5.90;;
19605;SDS011;9950;50.168;8.210;2023-07-29T07:26:58;6.18;;;5.57;;
19605;SDS011;9950;50.168;8.210;2023-07-29T07:29:25;6.07;;;4.93;;
19605;SDS011;9950;50.168;8.210;2023-07-29T07:31:53;6.70;;;4.85;;
19605;SDS011;9950;50.168;8.210;2023-07-29T07:34:21;4.95;;;4.55;;
19605;SDS011;9950;50.168;8.210;2023-07-29T07:36:48;5.90;;;5.10;;
19605;SDS011;9950;50.168;8.210;2023-07-29T07:39:15;4.80;;;4.30;;
19605;SDS011;9950;50.168;8.210;2023-07-29T07:41:42;5.88;;;4.30;;
19605;SDS011;9950;50.168;8.210;2023-07-29T07:44:11;4.82;;;4.32;;
19605;SDS011;9950;50.168;8.210;2023-07-29T07:46:40;4.35;;;3.95;;
19605;SDS011;9950;50.168;8.210;2023-07-29T07:49:07;4.20;;;3.80;;
19605;SDS011;9950;50.168;8.210;2023-07-29T07:51:34;3.42;;;3.13;;
19605;SDS011;9950;50.168;8.210;2023-07-29T07:54:01;4.18;;;3.58;;
19605;SDS011;9950;50.168;8.210;2023-07-29T07:56:28;3.10;;;2.90;;
19605;SDS011;9950;50.168;8.210;2023-07-29T07:58:56;6.93;;;3.08;;
19605;SDS011;9950;50.168;8.210;2023-07-29T08:01:24;3.03;;;2.80;;
19605;SDS011;9950;50.168;8.210;2023-07-29T08:03:51;2.60;;;2.38;;
19605;SDS011;9950;50.168;8.210;2023-07-29T08:06:18;3.88;;;2.65;;
19605;SDS011;9950;50.168;8.210;2023-07-29T08:08:46;4.72;;;2.75;;
19605;SDS011;9950;50.168;8.210;2023-07-29T08:11:13;2.78;;;2.58;;
19605;SDS011;9950;50.168;8.210;2023-07-29T08:13:40;2.80;;;2.60;;
19605;SDS011;9950;50.168;8.210;2023-07-29T08:16:07;3.40;;;2.90;;
19605;SDS011;9950;50.168;8.210;2023-07-29T08:18:36;4.80;;;3.00;;
19605;SDS011;9950;50.168;8.210;2023-07-29T08:21:03;3.47;;;2.55;;
19605;SDS011;9950;50.168;8.210;2023-07-29T08:23:30;2.95;;;2.60;;
19605;SDS011;9950;50.168;8.210;2023-07-29T08:25:58;2.50;;;2.20;;
19605;SDS011;9950;50.168;8.210;2023-07-29T08:28:27;3.28;;;2.67;;
19605;SDS011;9950;50.168;8.210;2023-07-29T08:30:54;3.92;;;2.30;;
19605;SDS011;9950;50.168;8.210;2023-07-29T08:33:21;3.95;;;2.30;;
19605;SDS011;9950;50.168;8.210;2023-07-29T08:35:50;2.30;;;1.92;;
19605;SDS011;9950;50.168;8.210;2023-07-29T08:38:17;2.88;;;2.10;;
19605;SDS011;9950;50.168;8.210;2023-07-29T08:40:45;6.05;;;2.05;;
19605;SDS011;9950;50.168;8.210;2023-07-29T08:43:12;2.95;;;2.00;;
19605;SDS011;9950;50.168;8.210;2023-07-29T08:45:40;2.40;;;2.20;;
19605;SDS011;9950;50.168;8.210;2023-07-29T08:48:09;2.05;;;1.90;;
19605;SDS011;9950;50.168;8.210;2023-07-29T08:50:37;2.20;;;2.00;;
19605;SDS011;9950;50.168;8.210;2023-07-29T08:53:05;3.17;;;2.20;;
19605;SDS011;9950;50.168;8.210;2023-07-29T08:55:33;2.22;;;1.92;;
19605;SDS011;9950;50.168;8.210;2023-07-29T08:58:00;5.00;;;2.55;;
19605;SDS011;9950;50.168;8.210;2023-07-29T09:00:27;3.17;;;2.50;;
19605;SDS011;9950;50.168;8.210;2023-07-29T09:02:54;4.40;;;2.60;;
19605;SDS011;9950;50.168;8.210;2023-07-29T09:05:27;3.17;;;2.88;;
19605;SDS011;9950;50.168;8.210;2023-07-29T09:07:54;3.28;;;2.20;;
19605;SDS011;9950;50.168;8.210;2023-07-29T09:10:23;2.42;;;2.20;;
19605;SDS011;9950;50.168;8.210;2023-07-29T09:12:52;4.15;;;2.20;;
19605;SDS011;9950;50.168;8.210;2023-07-29T09:15:27;2.92;;;2.03;;
19605;SDS011;9950;50.168;8.210;2023-07-29T09:17:55;2.92;;;1.88;;
19605;SDS011;9950;50.168;8.210;2023-07-29T09:20:24;1.85;;;1.67;;
19605;SDS011;9950;50.168;8.210;2023-07-29T09:22:51;2.03;;;1.65;;
19605;SDS011;9950;50.168;8.210;2023-07-29T09:25:23;2.38;;;1.70;;
19605;SDS011;9950;50.168;8.210;2023-07-29T09:27:50;3.28;;;1.73;;
19605;SDS011;9950;50.168;8.210;2023-07-29T09:30:18;3.45;;;1.52;;
19605;SDS011;9950;50.168;8.210;2023-07-29T09:32:52;2.00;;;1.80;;
19605;SDS011;9950;50.168;8.210;2023-07-29T09:35:19;2.72;;;1.70;;
19605;SDS011;9950;50.168;8.210;2023-07-29T09:37:46;2.13;;;1.63;;
19605;SDS011;9950;50.168;8.210;2023-07-29T09:40:14;2.72;;;1.80;;
19605;SDS011;9950;50.168;8.210;2023-07-29T09:42:48;2.88;;;1.45;;
19605;SDS011;9950;50.168;8.210;2023-07-29T09:45:20;4.28;;;1.85;;
19605;SDS011;9950;50.168;8.210;2023-07-29T09:47:47;1.90;;;1.60;;
19605;SDS011;9950;50.168;8.210;2023-07-29T09:50:14;2.25;;;2.05;;
19605;SDS011;9950;50.168;8.210;2023-07-29T09:52:41;1.63;;;1.52;;
19605;SDS011;9950;50.168;8.210;2023-07-29T09:55:09;4.53;;;2.10;;
19605;SDS011;9950;50.168;8.210;2023-07-29T09:57:36;2.10;;;1.90;;
19605;SDS011;9950;50.168;8.210;2023-07-29T10:00:07;4.13;;;2.15;;
19605;SDS011;9950;50.168;8.210;2023-07-29T10:02:36;3.45;;;2.05;;
19605;SDS011;9950;50.168;8.210;2023-07-29T10:05:04;2.90;;;2.00;;
19605;SDS011;9950;50.168;8.210;2023-07-29T10:07:32;2.45;;;1.90;;
19605;SDS011;9950;50.168;8.210;2023-07-29T10:10:01;2.13;;;1.83;;
19605;SDS011;9950;50.168;8.210;2023-07-29T10:12:29;3.42;;;2.03;;
19605;SDS011;9950;50.168;8.210;2023-07-29T10:14:58;3.80;;;2.08;;
19605;SDS011;9950;50.168;8.210;2023-07-29T10:17:27;3.63;;;1.88;;
19605;SDS011;9950;50.168;8.210;2023-07-29T10:19:55;4.28;;;2.38;;
19605;SDS011;9950;50.168;8.210;2023-07-29T10:22:24;2.20;;;2.00;;
19605;SDS011;9950;50.168;8.210;2023-07-29T10:24:51;2.20;;;1.75;;
19605;SDS011;9950;50.168;8.210;2023-07-29T10:27:20;1.67;;;1.50;;
19605;SDS011;9950;50.168;8.210;2023-07-29T10:29:48;2.70;;;1.80;;
19605;SDS011;9950;50.168;8.210;2023-07-29T10:32:16;2.63;;;1.48;;
19605;SDS011;9950;50.168;8.210;2023-07-29T10:34:44;1.65;;;1.30;;
19605;SDS011;9950;50.168;8.210;2023-07-29T10:37:11;2.78;;;1.40;;
19605;SDS011;9950;50.168;8.210;2023-07-29T10:39:39;2.45;;;1.70;;
19605;SDS011;9950;50.168;8.210;2023-07-29T10:42:07;2.72;;;1.45;;
19605;SDS011;9950;50.168;8.210;2023-07-29T10:44:47;4.00;;;1.40;;
19605;SDS011;9950;50.168;8.210;2023-07-29T10:47:15;1.90;;;1.42;;
19605;SDS011;9950;50.168;8.210;2023-07-29T10:49:45;2.53;;;1.48;;
19605;SDS011;9950;50.168;8.210;2023-07-29T10:52:13;1.65;;;1.50;;
19605;SDS011;9950;50.168;8.210;2023-07-29T10:54:41;1.67;;;1.33;;
19605;SDS011;9950;50.168;8.210;2023-07-29T10:57:12;2.60;;;1.60;;
19605;SDS011;9950;50.168;8.210;2023-07-29T10:59:40;2.88;;;1.55;;
19605;SDS011;9950;50.168;8.210;2023-07-29T11:02:17;1.92;;;1.40;;
19605;SDS011;9950;50.168;8.210;2023-07-29T11:04:47;1.50;;;1.40;;
19605;SDS011;9950;50.168;8.210;2023-07-29T11:07:18;1.50;;;1.40;;
19605;SDS011;9950;50.168;8.210;2023-07-29T11:09:51;3.20;;;1.38;;
19605;SDS011;9950;50.168;8.210;2023-07-29T11:12:38;2.92;;;1.80;;
19605;SDS011;9950;50.168;8.210;2023-07-29T11:15:17;1.85;;;1.50;;
19605;SDS011;9950;50.168;8.210;2023-07-29T11:17:45;3.60;;;1.30;;
19605;SDS011;9950;50.168;8.210;2023-07-29T11:20:15;1.85;;;1.30;;
19605;SDS011;9950;50.168;8.210;2023-07-29T11:22:42;1.83;;;1.48;;
19605;SDS011;9950;50.168;8.210;2023-07-29T11:25:10;1.80;;;1.50;;
19605;SDS011;9950;50.168;8.210;2023-07-29T11:27:37;2.22;;;1.45;;
19605;SDS011;9950;50.168;8.210;2023-07-29T11:30:05;2.03;;;1.42;;
19605;SDS011;9950;50.168;8.210;2023-07-29T11:32:33;2.47;;;1.33;;
19605;SDS011;9950;50.168;8.210;2023-07-29T11:35:01;3.45;;;1.35;;
19605;SDS011;9950;50.168;8.210;2023-07-29T11:37:30;1.42;;;1.30;;
19605;SDS011;9950;50.168;8.210;2023-07-29T11:39:57;3.13;;;1.30;;
19605;SDS011;9950;50.168;8.210;2023-07-29T11:42:24;3.33;;;1.40;;
19605;SDS011;9950;50.168;8.210;2023-07-29T11:44:52;2.15;;;1.50;;
19605;SDS011;9950;50.168;8.210;2023-07-29T11:47:20;3.38;;;1.77;;
19605;SDS011;9950;50.168;8.210;2023-07-29T11:49:47;4.25;;;1.60;;
19605;SDS011;9950;50.168;8.210;2023-07-29T11:52:14;1.40;;;1.30;;
19605;SDS011;9950;50.168;8.210;2023-07-29T11:54:45;2.15;;;1.50;;
19605;SDS011;9950;50.168;8.210;2023-07-29T11:57:13;2.38;;;1.42;;
19605;SDS011;9950;50.168;8.210;2023-07-29T11:59:40;2.58;;;1.30;;
19605;SDS011;9950;50.168;8.210;2023-07-29T12:02:08;2.45;;;1.52;;
19605;SDS011;9950;50.168;8.210;2023-07-29T12:04:36;1.80;;;1.45;;
19605;SDS011;9950;50.168;8.210;2023-07-29T12:07:04;1.95;;;1.40;;
19605;SDS011;9950;50.168;8.210;2023-07-29T12:09:31;1.60;;;1.50;;
19605;SDS011;9950;50.168;8.210;2023-07-29T12:12:00;2.17;;;1.77;;
19605;SDS011;9950;50.168;8.210;2023-07-29T12:14:28;3.17;;;2.50;;
19605;SDS011;9950;50.168;8.210;2023-07-29T12:16:55;2.05;;;1.50;;
19605;SDS011;9950;50.168;8.210;2023-07-29T12:19:22;3.08;;;1.70;;
19605;SDS011;9950;50.168;8.210;2023-07-29T12:21:50;3.17;;;1.58;;
19605;SDS011;9950;50.168;8.210;2023-07-29T12:24:17;1.75;;;1.63;;
19605;SDS011;9950;50.168;8.210;2023-07-29T12:26:44;2.75;;;1.60;;
19605;SDS011;9950;50.168;8.210;2023-07-29T12:29:13;4.88;;;1.85;;
19605;SDS011;9950;50.168;8.210;2023-07-29T12:31:40;4.20;;;1.85;;
19605;SDS011;9950;50.168;8.210;2023-07-29T12:34:08;5.07;;;2.08;;
19605;SDS011;9950;50.168;8.210;2023-07-29T12:36:43;2.58;;;1.70;;
19605;SDS011;9950;50.168;8.210;2023-07-29T12:39:20;2.85;;;1.80;;
19605;SDS011;9950;50.168;8.210;2023-07-29T12:41:48;2.30;;;1.70;;
19605;SDS011;9950;50.168;8.210;2023-07-29T12:44:16;1.88;;;1.63;;
19605;SDS011;9950;50.168;8.210;2023-07-29T12:46:44;3.65;;;1.80;;
19605;SDS011;9950;50.168;8.210;2023-07-29T12:49:11;2.10;;;1.63;;
19605;SDS011;9950;50.168;8.210;2023-07-29T12:51:38;2.70;;;2.03;;
19605;SDS011;9950;50.168;8.210;2023-07-29T12:54:05;2.35;;;2.03;;
19605;SDS011;9950;50.168;8.210;2023-07-29T12:56:32;3.63;;;2.05;;
19605;SDS011;9950;50.168;8.210;2023-07-29T12:59:00;3.35;;;2.20;;
19605;SDS011;9950;50.168;8.210;2023-07-29T13:01:29;2.85;;;2.10;;
19605;SDS011;9950;50.168;8.210;2023-07-29T13:03:56;3.58;;;2.17;;
19605;SDS011;9950;50.168;8.210;2023-07-29T13:06:23;2.92;;;1.90;;
19605;SDS011;9950;50.168;8.210;2023-07-29T13:08:50;3.10;;;1.83;;
19605;SDS011;9950;50.168;8.210;2023-07-29T13:11:17;2.25;;;1.33;;
19605;SDS011;9950;50.168;8.210;2023-07-29T13:13:44;2.90;;;1.45;;
19605;SDS011;9950;50.168;8.210;2023-07-29T13:16:12;4.47;;;1.48;;
19605;SDS011;9950;50.168;8.210;2023-07-29T13:18:40;2.60;;;1.55;;
19605;SDS011;9950;50.168;8.210;2023-07-29T13:21:07;2.28;;;1.50;;
19605;SDS011;9950;50.168;8.210;2023-07-29T13:23:34;6.28;;;1.80;;
19605;SDS011;9950;50.168;8.210;2023-07-29T13:26:02;2.45;;;1.40;;
19605;SDS011;9950;50.168;8.210;2023-07-29T13:28:29;1.73;;;1.30;;
19605;SDS011;9950;50.168;8.210;2023-07-29T13:30:56;4.35;;;1.40;;
19605;SDS011;9950;50.168;8.210;2023-07-29T13:33:23;2.13;;;1.13;;
19605;SDS011;9950;50.168;8.210;2023-07-29T13:35:51;2.45;;;1.30;;
19605;SDS011;9950;50.168;8.210;2023-07-29T13:38:18;1.60;;;1.33;;
19605;SDS011;9950;50.168;8.210;2023-07-29T13:40:46;1.85;;;1.30;;
19605;SDS011;9950;50.168;8.210;2023-07-29T13:43:15;2.85;;;1.23;;
19605;SDS011;9950;50.168;8.210;2023-07-29T13:45:43;4.63;;;1.52;;
19605;SDS011;9950;50.168;8.210;2023-07-29T13:48:10;4.25;;;1.67;;
19605;SDS011;9950;50.168;8.210;2023-07-29T13:50:37;1.98;;;1.23;;
19605;SDS011;9950;50.168;8.210;2023-07-29T13:53:05;2.83;;;1.40;;
19605;SDS011;9950;50.168;8.210;2023-07-29T13:55:32;1.15;;;1.05;;
19605;SDS011;9950;50.168;8.210;2023-07-29T13:58:00;1.83;;;1.25;;
19605;SDS011;9950;50.168;8.210;2023-07-29T14:00:27;1.58;;;1.20;;
19605;SDS011;9950;50.168;8.210;2023-07-29T14:02:54;1.95;;;1.23;;
19605;SDS011;9950;50.168;8.210;2023-07-29T14:05:21;1.48;;;1.30;;
19605;SDS011;9950;50.168;8.210;2023-07-29T14:07:48;1.88;;;1.25;;
19605;SDS011;9950;50.168;8.210;2023-07-29T14:10:16;2.70;;;1.30;;
19605;SDS011;9950;50.168;8.210;2023-07-29T14:12:43;3.17;;;1.27;;
19605;SDS011;9950;50.168;8.210;2023-07-29T14:15:10;1.92;;;1.35;;
19605;SDS011;9950;50.168;8.210;2023-07-29T14:17:38;1.27;;;1.17;;
19605;SDS011;9950;50.168;8.210;2023-07-29T14:20:05;2.72;;;1.42;;
19605;SDS011;9950;50.168;8.210;2023-07-29T14:22:32;1.30;;;1.13;;
19605;SDS011;9950;50.168;8.210;2023-07-29T14:25:00;1.63;;;1.52;;
19605;SDS011;9950;50.168;8.210;2023-07-29T14:27:28;2.05;;;1.42;;
19605;SDS011;9950;50.168;8.210;2023-07-29T14:29:55;1.58;;;1.10;;
19605;SDS011;9950;50.168;8.210;2023-07-29T14:32:22;2.13;;;1.55;;
19605;SDS011;9950;50.168;8.210;2023-07-29T14:34:49;1.50;;;1.40;;
19605;SDS011;9950;50.168;8.210;2023-07-29T14:37:16;2.00;;;1.52;;
19605;SDS011;9950;50.168;8.210;2023-07-29T14:39:43;3.22;;;1.67;;
19605;SDS011;9950;50.168;8.210;2023-07-29T14:42:11;1.85;;;1.40;;
19605;SDS011;9950;50.168;8.210;2023-07-29T14:44:41;2.28;;;1.20;;
19605;SDS011;9950;50.168;8.210;2023-07-29T14:47:08;3.13;;;1.55;;
19605;SDS011;9950;50.168;8.210;2023-07-29T14:49:35;3.08;;;1.40;;
19605;SDS011;9950;50.168;8.210;2023-07-29T14:52:02;1.75;;;1.38;;
19605;SDS011;9950;50.168;8.210;2023-07-29T14:54:30;3.28;;;1.20;;
19605;SDS011;9950;50.168;8.210;2023-07-29T14:56:57;2.15;;;1.50;;
19605;SDS011;9950;50.168;8.210;2023-07-29T14:59:24;8.15;;;1.98;;
19605;SDS011;9950;50.168;8.210;2023-07-29T15:01:52;2.50;;;1.50;;